Time;durP1;ratioP1;P1;durP2;ratioP2;P2;SDS_P1;SDS_P2;PMS_P1;PMS_P2;Temp;Humidity;BMP_temperature;BMP_pressure;BME280_temperature;BME280_humidity;BME280_pressure;Samples;Min_cycle;Max_cycle;Signal;HPM_P1;HPM_P2
2022/06/23 04:02:12;;;;;;;6.70;2.25;;;;;;;22.09;47.76;100175.16;5606113;31;79198;-56
2022/06/23 04:05:27;;;;;;;4.65;2.10;;;;;;;22.09;47.76;100175.16;5584123;31;33468;-56
2022/06/23 04:08:38;;;;;;;2.42;2.00;;;;;;;21.70;48.47;100177.94;5587119;31;33888;-57
2022/06/23 04:11:44;;;;;;;4.78;1.98;;;;;;;21.74;47.61;100178.78;5597221;31;34225;-57
2022/06/23 04:15:12;;;;;;;9.75;2.47;;;;;;;21.75;46.16;100188.56;5602710;31;33838;-57
2022/06/23 04:18:21;;;;;;;;;;;;;;;21.90;48.20;100192.34;5593834;31;34304;-57
2022/06/23 04:21:28;;;;;;;6.65;2.20;;;;;;;21.91;43.98;100183.00;5583565;32;34136;-57
2022/06/23 04:24:34;;;;;;;3.90;2.10;;;;;;;21.99;47.32;100192.16;5572979;31;34286;-57
2022/06/23 04:27:39;;;;;;;;;;;;;;;22.05;42.32;100201.59;5584158;31;34195;-56
2022/06/23 04:30:41;;;;;;;3.78;1.77;;;;;;;22.16;48.17;100201.84;5583852;31;33914;-57
2022/06/23 04:33:46;;;;;;;3.80;1.80;;;;;;;22.18;50.19;100208.50;5583634;31;33617;-57
2022/06/23 04:36:49;;;;;;;2.97;1.70;;;;;;;22.25;45.03;100208.62;5583771;32;34315;-57
2022/06/23 04:40:00;;;;;;;2.78;1.65;;;;;;;22.33;44.13;100208.75;5583868;31;33723;-57
2022/06/23 04:43:12;;;;;;;2.37;2.00;;;;;;;22.29;45.06;100211.44;5582840;32;33633;-56
2022/06/23 04:46:18;;;;;;;4.40;2.15;;;;;;;22.35;45.61;100217.34;5583349;31;34210;-57
2022/06/23 04:49:35;;;;;;;3.03;1.70;;;;;;;22.41;45.17;100224.09;5583579;31;34268;-57
2022/06/23 04:52:43;;;;;;;2.92;1.90;;;;;;;22.45;43.50;100225.75;5583070;32;33956;-56
2022/06/23 04:55:59;;;;;;;3.47;1.80;;;;;;;22.59;45.12;100236.13;5583651;32;33538;-57
2022/06/23 04:59:14;;;;;;;4.68;1.90;;;;;;;22.57;42.83;100241.16;5583571;31;33973;-57
2022/06/23 05:02:42;;;;;;;2.05;1.85;;;;;;;22.66;43.95;100240.94;5581036;32;34271;-56
2022/06/23 05:05:52;;;;;;;6.30;2.15;;;;;;;22.75;42.32;100245.00;5582995;31;32183;-57
2022/06/23 05:09:01;;;;;;;2.90;1.60;;;;;;;22.73;44.79;100239.09;5583440;31;33592;-57
2022/06/23 05:12:24;;;;;;;3.05;1.98;;;;;;;22.73;39.41;100244.56;5574889;32;34263;-57
2022/06/23 05:15:35;;;;;;;9.32;1.75;;;;;;;22.70;39.87;100248.03;5568821;32;33933;-56
2022/06/23 05:18:46;;;;;;;5.62;2.33;;;;;;;22.83;45.45;100251.34;5568680;32;33693;-56
2022/06/23 05:21:53;;;;;;;7.82;2.10;;;;;;;23.00;39.88;100252.03;5569083;32;34463;-56
2022/06/23 05:24:57;;;;;;;4.22;1.90;;;;;;;;;;5568192;32;34305;-57
2022/06/23 05:28:04;;;;;;;4.57;2.12;;;;;;;23.24;41.78;100267.22;5569758;32;33908;-57
2022/06/23 05:31:18;;;;;;;4.25;1.80;;;;;;;23.35;38.09;100265.44;5569559;32;33637;-57
2022/06/23 05:34:28;;;;;;;2.30;1.87;;;;;;;23.36;38.14;100264.28;5560800;32;33633;-57
2022/06/23 05:37:42;;;;;;;4.60;1.80;;;;;;;23.43;39.15;100267.91;5560417;32;33744;-56
2022/06/23 05:40:55;;;;;;;4.03;2.05;;;;;;;23.53;36.63;100265.69;5570018;32;34224;-57
2022/06/23 05:43:58;;;;;;;3.75;2.00;;;;;;;23.60;37.57;100273.97;5569387;32;33686;-57
2022/06/23 05:47:02;;;;;;;3.03;1.80;;;;;;;23.67;36.28;100277.63;5569440;32;33949;-57
2022/06/23 05:50:11;;;;;;;3.20;1.58;;;;;;;23.68;37.90;100278.44;5568612;32;33747;-57
2022/06/23 05:53:24;;;;;;;2.65;1.80;;;;;;;23.85;39.68;100277.09;5569732;32;33683;-57
2022/06/23 05:56:34;;;;;;;4.47;2.00;;;;;;;24.10;36.34;100285.56;5564768;32;34281;-57
2022/06/23 05:59:48;;;;;;;10.35;2.10;;;;;;;24.20;35.87;100287.63;5557945;32;33616;-57
2022/06/23 06:03:16;;;;;;;2.37;1.80;;;;;;;24.37;36.58;100286.25;5569379;32;33680;-57
2022/06/23 06:06:19;;;;;;;13.82;2.35;;;;;;;24.51;35.68;100291.13;5569329;32;33620;-57
2022/06/23 06:09:36;;;;;;;4.80;2.00;;;;;;;24.47;35.21;100284.81;5568635;32;34451;-57
2022/06/23 06:12:41;;;;;;;5.37;1.67;;;;;;;24.55;35.75;100292.75;5566572;32;34104;-58
2022/06/23 06:15:49;;;;;;;18.30;2.17;;;;;;;24.67;37.27;100294.44;5568054;32;33868;-57
2022/06/23 06:18:58;;;;;;;3.22;1.73;;;;;;;24.63;37.49;100301.03;5558091;32;34360;-57
2022/06/23 06:22:32;;;;;;;7.35;2.20;;;;;;;24.70;38.13;100304.63;5567676;32;34383;-57
2022/06/23 06:25:40;;;;;;;18.40;2.70;;;;;;;24.83;35.72;100305.13;5560408;32;33648;-57
2022/06/23 06:28:59;;;;;;;10.48;2.00;;;;;;;24.81;39.24;100304.72;5569123;32;33772;-57
2022/06/23 06:32:23;;;;;;;19.85;2.45;;;;;;;24.82;37.44;100312.56;5555107;32;33364;-57
2022/06/23 06:35:37;;;;;;;4.27;1.93;;;;;;;24.89;38.06;100309.09;5567796;32;33739;-57
2022/06/23 06:38:39;;;;;;;4.30;1.70;;;;;;;24.99;35.61;100305.66;5568973;32;33473;-57
2022/06/23 06:41:46;;;;;;;6.00;1.87;;;;;;;25.09;35.62;100304.16;5569086;32;34303;-57
2022/06/23 06:44:57;;;;;;;4.00;1.83;;;;;;;25.02;34.49;100310.38;5569202;32;33703;-57
2022/06/23 06:48:01;;;;;;;2.30;1.60;;;;;;;24.96;35.68;100311.87;5568943;32;34317;-57
2022/06/23 06:51:16;;;;;;;3.40;1.85;;;;;;;24.97;38.71;100312.69;5562064;32;33767;-57
2022/06/23 06:54:25;;;;;;;3.50;1.70;;;;;;;24.96;35.70;100309.16;5569333;32;33216;-57
2022/06/23 06:57:46;;;;;;;4.75;1.98;;;;;;;25.08;35.75;100313.56;5569018;32;33705;-57
2022/06/23 07:01:11;;;;;;;6.10;2.10;;;;;;;25.10;36.10;100311.25;5566996;32;33734;-57
2022/06/23 07:04:21;;;;;;;2.60;1.60;;;;;;;25.35;39.23;100322.41;5549441;32;34286;-57
2022/06/23 07:07:29;;;;;;;4.25;1.83;;;;;;;25.29;35.30;100324.72;5552098;32;33844;-57
2022/06/23 07:10:41;;;;;;;9.73;2.22;;;;;;;25.22;33.15;100324.66;5568491;32;33337;-57
2022/06/23 07:14:12;;;;;;;6.05;2.00;;;;;;;25.22;33.92;100316.44;5567994;32;34310;-57
2022/06/23 07:17:37;;;;;;;7.65;1.73;;;;;;;25.28;34.07;100323.12;5554547;32;32252;-57
2022/06/23 07:20:56;;;;;;;3.17;1.63;;;;;;;25.40;34.07;100324.03;5566667;32;33716;-57
2022/06/23 07:24:14;;;;;;;7.43;1.85;;;;;;;25.44;34.16;100330.31;5567294;32;33647;-57
2022/06/23 07:27:33;;;;;;;6.25;1.98;;;;;;;25.56;37.67;100340.94;5568182;32;33727;-58
2022/06/23 07:30:42;;;;;;;7.87;2.05;;;;;;;25.52;34.54;100334.66;5568035;32;33700;-57
2022/06/23 07:33:59;;;;;;;7.95;2.08;;;;;;;25.47;33.25;100335.81;5566773;32;34391;-57
2022/06/23 07:37:29;;;;;;;9.23;2.12;;;;;;;25.50;35.24;100332.31;5567052;32;33852;-57
2022/06/23 07:40:50;;;;;;;2.70;1.90;;;;;;;25.45;33.97;100329.91;5543677;31;33697;-57
2022/06/23 07:44:07;;;;;;;7.32;1.80;;;;;;;25.54;34.79;100343.31;5567944;32;34385;-58
2022/06/23 07:47:09;;;;;;;;;;;;;;;25.70;34.65;100343.03;5562744;32;34345;-57
2022/06/23 07:50:12;;;;;;;10.45;1.75;;;;;;;25.88;33.85;100359.59;5568308;32;33853;-57
2022/06/23 07:53:28;;;;;;;6.55;2.40;;;;;;;25.88;33.42;100352.16;5563463;32;33863;-57
2022/06/23 07:56:34;;;;;;;17.05;2.45;;;;;;;25.89;31.80;100345.47;5564170;32;33732;-57
2022/06/23 07:59:46;;;;;;;5.55;1.77;;;;;;;25.90;33.55;100349.81;5567100;32;33638;-57
2022/06/23 08:02:55;;;;;;;5.60;1.80;;;;;;;25.97;33.01;100349.06;5551251;32;33701;-57
2022/06/23 08:06:03;;;;;;;3.62;1.60;;;;;;;25.99;33.54;100350.25;5566537;32;34104;-57
2022/06/23 08:09:16;;;;;;;14.65;1.98;;;;;;;25.95;34.35;100354.94;5564942;32;33581;-57
2022/06/23 08:19:40;;;;;;;4.22;1.50;;;;;;;26.21;34.88;100358.56;5552046;32;34328;-57
2022/06/23 08:22:43;;;;;;;17.80;2.28;;;;;;;26.27;32.31;100354.28;5565729;32;33632;-57
2022/06/23 08:25:52;;;;;;;3.80;1.80;;;;;;;26.30;32.97;100350.75;5567199;32;34417;-57
2022/06/23 08:29:06;;;;;;;4.82;2.03;;;;;;;26.35;32.73;100341.34;5566471;32;33706;-57
2022/06/23 08:32:11;;;;;;;6.37;2.20;;;;;;;26.50;32.66;100344.97;5563423;32;33659;-57
2022/06/23 08:35:29;;;;;;;6.00;1.75;;;;;;;26.42;31.05;100346.84;5567039;32;33835;-57
2022/06/23 08:38:40;;;;;;;16.37;2.12;;;;;;;26.20;30.92;100344.06;5566506;32;33597;-57
2022/06/23 08:41:59;;;;;;;53.70;5.18;;;;;;;26.16;32.40;100339.72;5556552;32;33775;-57
2022/06/23 08:45:29;;;;;;;7.03;2.10;;;;;;;26.26;32.49;100344.47;5567210;32;33262;-57
2022/06/23 08:48:44;;;;;;;32.50;2.40;;;;;;;26.25;31.52;100343.66;5569809;32;34284;-56
2022/06/23 08:52:21;;;;;;;5.28;1.73;;;;;;;26.30;32.64;100345.25;5568736;32;34348;-57
2022/06/23 08:55:47;;;;;;;9.95;1.60;;;;;;;26.33;31.85;100336.25;5569133;32;33606;-57
2022/06/23 08:58:58;;;;;;;30.02;3.42;;;;;;;26.34;31.38;100335.06;5569596;32;33600;-57
2022/06/23 09:02:17;;;;;;;10.13;2.00;;;;;;;26.48;32.32;100339.84;5569586;32;33428;-57
2022/06/23 09:05:43;;;;;;;3.30;1.55;;;;;;;26.61;31.03;100348.50;5567490;32;33840;-57
2022/06/23 09:09:19;;;;;;;7.05;1.87;;;;;;;26.64;29.04;100342.22;5567490;32;33587;-57
2022/06/23 09:12:34;;;;;;;4.90;1.70;;;;;;;26.60;31.89;100344.97;5568482;32;33764;-56
2022/06/23 09:16:17;;;;;;;5.00;1.50;;;;;;;26.56;28.84;100346.94;5568392;32;33737;-57
2022/06/23 09:19:45;;;;;;;2.70;1.37;;;;;;;26.50;32.22;100350.47;5569288;32;34267;-57
2022/06/23 09:23:23;;;;;;;2.45;1.50;;;;;;;26.43;29.00;100349.22;5564268;32;33586;-57
2022/06/23 09:26:39;;;;;;;4.47;1.50;;;;;;;26.38;29.03;100337.81;5568017;32;34464;-57
2022/06/23 09:30:20;;;;;;;6.65;2.35;;;;;;;26.35;28.78;100331.13;5569295;32;33711;-57
2022/06/23 09:34:01;;;;;;;29.15;2.83;;;;;;;26.35;29.59;100325.63;5562248;31;33505;-54
2022/06/23 09:37:22;;;;;;;3.72;1.87;;;;;;;26.50;29.87;100337.50;5567231;32;33965;-54
2022/06/23 09:40:33;;;;;;;3.53;1.75;;;;;;;26.61;29.37;100345.75;5568895;32;33691;-54
2022/06/23 09:44:03;;;;;;;7.85;2.00;;;;;;;26.69;29.57;100337.12;5569826;32;33790;-54
2022/06/23 09:47:23;;;;;;;5.22;1.77;;;;;;;26.58;30.69;100336.31;5565804;32;33778;-54
2022/06/23 09:50:52;;;;;;;5.15;1.58;;;;;;;26.75;30.78;100328.50;5569420;32;34334;-54
2022/06/23 09:54:17;;;;;;;2.58;1.80;;;;;;;26.88;29.71;100332.44;5568673;32;33734;-54
2022/06/23 09:57:57;;;;;;;3.03;1.80;;;;;;;26.90;29.66;100330.88;5568737;32;33832;-54
2022/06/23 10:01:25;;;;;;;6.00;1.95;;;;;;;26.93;29.71;100313.56;5568690;32;34413;-55
2022/06/23 10:04:40;;;;;;;3.75;1.75;;;;;;;27.01;29.92;100322.59;5569290;32;33898;-54
2022/06/23 10:08:07;;;;;;;3.22;1.60;;;;;;;26.92;28.61;100322.19;5567406;32;33901;-54
2022/06/23 10:11:40;;;;;;;2.03;1.40;;;;;;;26.79;27.68;100327.34;5549899;32;33710;-54
2022/06/23 10:15:05;;;;;;;3.12;1.50;;;;;;;26.78;28.14;100333.22;5567962;32;33691;-54
2022/06/23 10:18:29;;;;;;;4.95;1.50;;;;;;;26.86;29.08;100332.06;5568696;32;33774;-55
2022/06/23 10:22:22;;;;;;;4.40;1.70;;;;;;;26.90;27.52;100324.59;5568694;32;33768;-55
2022/06/23 10:25:54;;;;;;;2.70;1.50;;;;;;;27.03;28.79;100328.50;5557604;32;34334;-56
2022/06/23 10:29:15;;;;;;;4.45;1.80;;;;;;;27.13;28.81;100333.25;5567901;32;33635;-55
2022/06/23 10:32:40;;;;;;;4.28;1.80;;;;;;;27.05;27.42;100333.59;5564325;32;33762;-55
2022/06/23 10:35:54;;;;;;;7.57;1.87;;;;;;;26.97;30.10;100332.06;5568067;32;33015;-55
2022/06/23 10:39:28;;;;;;;6.18;1.70;;;;;;;27.06;30.79;100332.44;5567521;32;34452;-55
2022/06/23 10:42:36;;;;;;;3.53;1.67;;;;;;;26.94;28.13;100323.38;5568188;32;33557;-55
2022/06/23 10:45:47;;;;;;;2.80;1.80;;;;;;;27.00;28.64;100334.81;5568761;32;34310;-55
2022/06/23 10:49:16;;;;;;;2.65;1.60;;;;;;;26.98;28.76;100328.87;5567197;32;34310;-55
2022/06/23 10:52:20;;;;;;;2.33;1.67;;;;;;;26.97;28.55;100330.06;5569334;32;34456;-55
2022/06/23 10:55:25;;;;;;;5.55;1.90;;;;;;;27.02;28.19;100337.94;5566722;32;34221;-56
2022/06/23 10:58:33;;;;;;;2.45;1.62;;;;;;;27.08;28.48;100339.09;5568588;32;33534;-56
2022/06/23 11:02:05;;;;;;;5.15;1.70;;;;;;;27.08;27.49;100339.09;5567976;32;33786;-55
2022/06/23 11:05:14;;;;;;;5.65;1.90;;;;;;;27.23;29.21;100315.16;5568753;32;33723;-56
2022/06/23 11:08:45;;;;;;;2.35;1.70;;;;;;;27.26;29.65;100319.88;5568927;32;34323;-55
2022/06/23 11:12:02;;;;;;;4.68;1.83;;;;;;;27.17;28.40;100319.50;5566976;32;33592;-55
2022/06/23 11:15:35;;;;;;;2.37;1.55;;;;;;;27.20;28.91;100320.66;5568580;32;34317;-56
2022/06/23 11:18:49;;;;;;;5.45;1.70;;;;;;;27.08;28.29;100313.56;5568430;32;34460;-56
2022/06/23 11:22:28;;;;;;;4.47;1.70;;;;;;;27.01;29.23;100319.06;5568529;32;33737;-56
2022/06/23 11:25:51;;;;;;;4.07;1.60;;;;;;;27.01;28.35;100319.06;5553263;32;34347;-56
2022/06/23 11:29:10;;;;;;;3.42;1.58;;;;;;;27.20;27.84;100320.66;5562136;32;34355;-56
2022/06/23 11:32:44;;;;;;;4.75;1.85;;;;;;;27.29;29.16;100326.56;5568872;32;33378;-55
2022/06/23 11:35:56;;;;;;;7.00;1.87;;;;;;;27.25;27.61;100323.00;5566697;32;33750;-55
2022/06/23 11:39:17;;;;;;;4.95;1.58;;;;;;;27.25;27.28;100323.81;5567413;32;33842;-56
2022/06/23 11:42:48;;;;;;;2.80;1.50;;;;;;;27.10;27.16;100308.47;5568573;32;34435;-55
2022/06/23 11:46:07;;;;;;;4.18;1.55;;;;;;;27.19;27.56;100300.63;5568971;32;34605;-56
2022/06/23 11:49:37;;;;;;;1.75;1.58;;;;;;;27.28;27.31;100305.72;5568416;32;33781;-56
2022/06/23 11:53:02;;;;;;;2.72;1.58;;;;;;;27.25;26.32;100309.25;5568456;32;34360;-56
2022/06/23 11:56:16;;;;;;;4.10;1.62;;;;;;;27.25;27.56;100318.31;5568818;32;33689;-56
2022/06/23 11:59:30;;;;;;;1.87;1.40;;;;;;;27.40;26.48;100313.56;5568090;32;34397;-56
2022/06/23 12:03:33;;;;;;;3.15;1.65;;;;;;;27.42;27.78;100322.22;5568239;32;34289;-55
2022/06/23 12:07:02;;;;;;;3.33;1.50;;;;;;;27.41;25.81;100320.62;5536287;32;33642;-55
2022/06/23 12:10:12;;;;;;;2.05;1.50;;;;;;;27.44;28.58;100319.84;5568242;32;34300;-55
2022/06/23 12:13:14;;;;;;;1.90;1.40;;;;;;;27.38;27.24;100321.41;5568099;32;33537;-56
2022/06/23 12:16:17;;;;;;;3.17;1.77;;;;;;;27.35;25.87;100322.19;5568069;32;33710;-56
2022/06/23 12:19:24;;;;;;;5.93;1.77;;;;;;;27.44;27.63;100319.84;5568171;32;33717;-56
2022/06/23 12:22:38;;;;;;;4.28;1.45;;;;;;;27.40;27.35;100313.56;5569610;32;33667;-55
2022/06/23 12:26:19;;;;;;;3.45;1.60;;;;;;;27.38;26.95;100315.91;5570485;32;33770;-55
2022/06/23 12:29:39;;;;;;;3.92;1.58;;;;;;;27.33;26.41;100325.37;5568801;32;33720;-55
2022/06/23 12:33:06;;;;;;;3.67;1.62;;;;;;;27.24;26.87;100313.19;5570455;32;34229;-55
2022/06/23 12:36:49;;;;;;;1.77;1.58;;;;;;;27.22;27.57;100321.03;5570523;32;34245;-55
2022/06/23 12:40:16;;;;;;;3.47;1.50;;;;;;;27.25;28.76;100315.56;5553846;32;34366;-55
2022/06/23 12:43:37;;;;;;;1.70;1.58;;;;;;;27.33;26.17;100321.84;5550221;32;33307;-55
2022/06/23 12:47:20;;;;;;;5.12;1.80;;;;;;;27.32;27.85;100312.00;5550887;32;34302;-56
2022/06/23 12:50:34;;;;;;;3.17;1.52;;;;;;;27.36;28.55;100305.31;5550681;32;34344;-56
2022/06/23 12:54:11;;;;;;;2.62;1.50;;;;;;;27.37;27.98;100311.59;5567510;32;33785;-55
2022/06/23 12:57:19;;;;;;;3.55;1.55;;;;;;;27.31;26.98;100304.91;5564855;32;33711;-55
2022/06/23 13:00:34;;;;;;;7.85;1.73;;;;;;;27.21;28.30;100302.97;5569819;32;33607;-55
2022/06/23 13:03:44;;;;;;;4.12;1.80;;;;;;;27.28;27.46;100300.19;5570149;32;34373;-55
2022/06/23 13:06:57;;;;;;;3.58;1.92;;;;;;;27.26;28.00;100305.34;5570081;32;34322;-56
2022/06/23 13:10:08;;;;;;;6.70;1.77;;;;;;;27.17;27.96;100302.97;5570356;32;33323;-55
2022/06/23 13:13:23;;;;;;;5.20;1.70;;;;;;;27.14;29.13;100303.75;5569993;32;33488;-55
2022/06/23 13:16:38;;;;;;;2.93;1.70;;;;;;;27.09;29.01;100293.91;5568935;32;33743;-55
2022/06/23 13:19:49;;;;;;;7.22;1.50;;;;;;;27.18;29.08;100296.28;5570164;32;33736;-55
2022/06/23 13:23:12;;;;;;;15.00;2.53;;;;;;;27.28;29.10;100289.97;5569379;32;34354;-55
2022/06/23 13:26:21;;;;;;;3.97;1.70;;;;;;;27.35;29.29;100291.94;5569847;32;33725;-55
2022/06/23 13:29:35;;;;;;;3.83;1.50;;;;;;;27.41;27.51;100284.84;5569902;32;34265;-55
2022/06/23 13:32:44;;;;;;;4.07;1.77;;;;;;;27.40;28.22;100286.03;5569686;32;34402;-55
2022/06/23 13:35:57;;;;;;;3.78;1.80;;;;;;;27.43;29.46;100288.00;5569121;32;33679;-55
2022/06/23 13:39:21;;;;;;;18.52;2.42;;;;;;;27.41;27.00;100282.09;5569880;32;33746;-55
2022/06/23 13:42:53;;;;;;;11.02;2.30;;;;;;;27.46;28.81;100276.19;5569710;32;33821;-56
2022/06/23 13:46:04;;;;;;;3.42;1.80;;;;;;;27.60;29.89;100272.59;5561615;32;34280;-55
2022/06/23 13:49:13;;;;;;;4.00;1.80;;;;;;;27.67;26.93;100269.03;5569687;32;33813;-55
2022/06/23 13:52:44;;;;;;;6.37;1.60;;;;;;;27.63;27.05;100269.06;5569938;32;33769;-55
2022/06/23 13:56:24;;;;;;;7.55;1.62;;;;;;;27.63;27.18;100267.06;5569713;32;33898;-56
2022/06/23 13:59:40;;;;;;;4.45;1.58;;;;;;;27.70;27.51;100277.28;5543004;32;33616;-56
2022/06/23 14:02:48;;;;;;;21.95;2.22;;;;;;;27.69;26.00;100272.19;5569726;32;33238;-56
2022/06/23 14:06:28;;;;;;;3.70;1.58;;;;;;;27.73;26.84;100275.69;5569821;32;33883;-56
2022/06/23 14:09:58;;;;;;;3.05;1.90;;;;;;;27.81;25.46;100271.75;5569669;32;34280;-56
2022/06/23 14:13:07;;;;;;;12.45;2.05;;;;;;;27.82;25.91;100273.34;5561117;32;33665;-55
2022/06/23 14:16:24;;;;;;;2.37;1.48;;;;;;;27.77;26.75;100271.78;5569628;32;34422;-55
2022/06/23 14:19:49;;;;;;;5.68;1.60;;;;;;;27.79;25.90;100269.41;5569863;32;34467;-56
2022/06/23 14:22:59;;;;;;;3.00;1.40;;;;;;;27.87;26.62;100265.44;5569594;32;34357;-56
2022/06/23 14:26:20;;;;;;;6.28;1.80;;;;;;;27.92;27.42;100274.47;5568157;32;33762;-55
2022/06/23 14:29:49;;;;;;;4.37;1.50;;;;;;;27.98;27.22;100265.41;5569294;32;33664;-56
2022/06/23 14:33:14;;;;;;;7.95;1.77;;;;;;;27.94;27.57;100261.06;5569494;32;33878;-55
2022/06/23 14:36:34;;;;;;;4.22;1.50;;;;;;;27.86;25.67;100257.56;5550633;32;33737;-56
2022/06/23 14:40:20;;;;;;;12.75;2.00;;;;;;;27.85;27.60;100256.78;5550189;32;34291;-56
2022/06/23 14:43:43;;;;;;;6.62;1.80;;;;;;;27.91;26.16;100256.38;5535838;31;33594;-55
2022/06/23 14:47:03;;;;;;;4.12;1.73;;;;;;;27.94;27.62;100253.59;5568245;32;33774;-56
2022/06/23 14:50:23;;;;;;;15.65;2.55;;;;;;;27.89;25.57;100244.97;5566483;32;34063;-56
2022/06/23 14:53:43;;;;;;;3.58;1.30;;;;;;;27.85;28.11;100239.50;5568302;32;33680;-56
2022/06/23 14:56:51;;;;;;;3.92;1.58;;;;;;;27.81;27.38;100244.22;5568146;32;33635;-56
2022/06/23 15:00:11;;;;;;;3.75;1.50;;;;;;;27.85;28.42;100237.50;5567197;32;34470;-56
2022/06/23 15:03:25;;;;;;;3.08;1.60;;;;;;;27.93;27.50;100241.00;5568393;32;34469;-56
2022/06/23 15:07:16;;;;;;;2.67;1.70;;;;;;;27.94;25.08;100237.06;5567849;32;33757;-56
2022/06/23 15:10:56;;;;;;;5.60;1.77;;;;;;;27.86;28.09;100230.81;5564259;32;34390;-56
